createdAt,value
2022-12-06T00:01:22.464Z,31.40
2022-12-06T00:06:21.471Z,29.52
2022-12-06T00:11:21.703Z,27.58
2022-12-06T00:16:19.953Z,28.85
2022-12-06T00:21:20.872Z,28.55
2022-12-06T00:26:19.481Z,27.75
2022-12-06T00:31:23.147Z,28.85
2022-12-06T00:36:22.311Z,26.88
2022-12-06T00:41:21.725Z,36.25
2022-12-06T00:46:21.049Z,33.47
2022-12-06T00:51:21.598Z,29.70
2022-12-06T00:56:19.953Z,30.10
2022-12-06T01:01:20.302Z,32.75
2022-12-06T01:06:22.854Z,27.52
2022-12-06T01:11:21.019Z,34.53
2022-12-06T01:16:19.902Z,32.30
2022-12-06T01:21:20.019Z,35.58
2022-12-06T01:26:20.573Z,32.85
2022-12-06T01:31:18.943Z,29.00
2022-12-06T01:36:17.814Z,52.92
2022-12-06T01:41:16.513Z,54.90
2022-12-06T01:46:22.100Z,44.72
2022-12-06T01:51:20.746Z,40.47
2022-12-06T01:56:19.651Z,35.08
2022-12-06T02:01:17.895Z,137.88
2022-12-06T02:06:17.797Z,90.88
2022-12-06T02:11:15.954Z,126.43
2022-12-06T02:16:23.194Z,119.47
2022-12-06T02:21:26.792Z,63.30
2022-12-06T02:26:31.519Z,158.85
2022-12-06T02:31:34.079Z,92.00
2022-12-06T02:36:34.403Z,287.15
2022-12-06T02:41:35.219Z,85.40
2022-12-06T02:46:36.645Z,42.50
2022-12-06T02:51:36.242Z,55.90
2022-12-06T02:56:34.656Z,128.70
2022-12-06T03:01:35.851Z,42.35
2022-12-06T03:06:42.280Z,77.70
2022-12-06T03:11:45.344Z,149.00
2022-12-06T03:16:48.539Z,61.05
2022-12-06T03:21:49.026Z,33.92
2022-12-06T03:26:48.578Z,74.72
2022-12-06T03:31:48.284Z,63.92
2022-12-06T03:36:47.677Z,31.55
2022-12-06T03:41:51.218Z,42.20
2022-12-06T03:46:51.844Z,30.13
2022-12-06T03:51:50.036Z,42.58
2022-12-06T03:56:48.301Z,26.38
2022-12-06T04:01:46.640Z,27.38
2022-12-06T04:06:46.269Z,56.60
2022-12-06T04:11:44.441Z,68.60
2022-12-06T04:17:00.235Z,48.30
2022-12-06T04:22:17.518Z,170.15
2022-12-06T04:27:32.940Z,93.55
2022-12-06T04:32:48.358Z,102.90
2022-12-06T04:38:05.631Z,115.70
2022-12-06T04:43:21.355Z,128.07
2022-12-06T04:48:19.582Z,88.35
2022-12-06T04:53:19.671Z,158.98
2022-12-06T04:58:17.851Z,94.88
2022-12-06T05:03:16.339Z,105.35
2022-12-06T05:08:14.848Z,90.07
2022-12-06T05:13:14.455Z,74.90
2022-12-06T05:18:12.654Z,119.88
2022-12-06T05:23:10.816Z,41.88
2022-12-06T05:28:09.660Z,138.63
2022-12-06T05:33:09.191Z,80.80
2022-12-06T05:38:07.428Z,129.77
2022-12-06T05:43:05.617Z,88.78
2022-12-06T05:48:03.900Z,152.00
2022-12-06T05:53:03.642Z,170.25
2022-12-06T05:58:01.798Z,149.63
2022-12-06T06:03:00.935Z,80.07
2022-12-06T06:07:59.251Z,129.45
2022-12-06T06:12:58.984Z,112.18
2022-12-06T06:17:57.185Z,63.70
2022-12-06T06:22:55.466Z,51.55
2022-12-06T06:27:54.590Z,49.90
2022-12-06T06:32:54.124Z,37.08
2022-12-06T06:37:52.318Z,35.33
2022-12-06T06:42:50.488Z,33.10
2022-12-06T06:47:49.084Z,30.30
2022-12-06T06:52:48.604Z,32.58
2022-12-06T06:57:47.705Z,45.47
2022-12-06T07:02:45.907Z,30.55
2022-12-06T07:07:44.491Z,34.33
2022-12-06T07:13:01.792Z,30.30
2022-12-06T07:18:00.056Z,28.77
2022-12-06T07:22:58.240Z,27.77
2022-12-06T07:27:57.755Z,27.27
2022-12-06T07:32:55.985Z,35.03
2022-12-06T07:37:54.146Z,53.35
2022-12-06T07:43:09.406Z,47.38
2022-12-06T07:48:09.312Z,44.63
2022-12-06T07:53:07.467Z,115.00
2022-12-06T07:58:05.642Z,141.98
2022-12-06T08:03:03.840Z,128.88
2022-12-06T08:08:03.474Z,80.88
2022-12-06T08:13:03.826Z,42.83
2022-12-06T08:18:02.144Z,60.63
2022-12-06T08:23:00.301Z,147.55
2022-12-06T08:27:59.852Z,68.20
2022-12-06T08:32:58.030Z,38.15
2022-12-06T08:37:56.191Z,36.88
2022-12-06T08:42:54.376Z,106.60
2022-12-06T08:47:53.963Z,45.28
2022-12-06T08:52:52.347Z,33.78
2022-12-06T08:57:50.523Z,30.70
2022-12-06T09:02:48.744Z,25.40
2022-12-06T09:07:48.427Z,26.02
2022-12-06T09:12:46.715Z,19.98
2022-12-06T09:17:44.912Z,16.98
2022-12-06T09:22:43.123Z,28.65
2022-12-06T09:27:42.942Z,27.67
2022-12-06T09:32:41.164Z,30.80
2022-12-06T09:37:39.348Z,21.42
2022-12-06T09:42:48.361Z,28.75
2022-12-06T09:48:00.547Z,18.02
2022-12-06T09:53:07.462Z,31.48
2022-12-06T09:58:12.552Z,37.65
2022-12-06T10:08:19.821Z,33.75
2022-12-06T10:13:24.506Z,42.90
2022-12-06T10:18:38.824Z,39.17
2022-12-06T10:23:43.201Z,40.63
2022-12-06T10:28:45.704Z,36.47
2022-12-06T10:33:50.437Z,42.45
2022-12-06T10:38:51.868Z,36.00
2022-12-06T10:43:54.453Z,65.75
2022-12-06T10:48:58.316Z,24.85
2022-12-06T10:53:58.786Z,30.63
2022-12-06T10:59:01.061Z,22.98
2022-12-06T11:04:01.028Z,21.17
2022-12-06T11:09:00.733Z,25.30
2022-12-06T11:14:02.893Z,32.58
2022-12-06T11:19:03.968Z,26.08
2022-12-06T11:24:04.203Z,25.60
2022-12-06T11:29:06.288Z,22.30
2022-12-06T11:34:05.827Z,25.70
2022-12-06T11:39:04.918Z,26.25
2022-12-06T11:44:04.592Z,24.73
2022-12-06T11:49:06.048Z,24.70
2022-12-06T11:54:05.592Z,33.10
2022-12-06T11:59:12.293Z,27.73
2022-12-06T12:04:29.100Z,37.85
2022-12-06T12:09:29.124Z,25.85
2022-12-06T12:14:30.938Z,25.80
2022-12-06T12:19:32.323Z,30.80
2022-12-06T12:25:18.033Z,39.53
2022-12-06T12:30:24.226Z,41.42
2022-12-06T12:35:28.476Z,30.98
2022-12-06T12:40:28.537Z,37.47
2022-12-06T12:45:27.805Z,25.63
2022-12-06T12:50:27.765Z,22.55
2022-12-06T12:55:27.282Z,22.20
2022-12-06T13:00:26.281Z,23.75
2022-12-06T13:05:33.258Z,24.27
2022-12-06T13:10:35.238Z,23.25
2022-12-06T13:15:35.618Z,34.08
2022-12-06T13:20:35.014Z,23.98
2022-12-06T13:25:34.536Z,26.73
2022-12-06T13:30:37.330Z,30.77
2022-12-06T13:35:37.983Z,27.17
2022-12-06T13:40:45.001Z,22.73
2022-12-06T13:45:45.510Z,22.92
2022-12-06T13:50:53.892Z,37.40
2022-12-06T13:56:00.917Z,36.38
2022-12-06T14:00:59.121Z,66.13
2022-12-06T14:06:14.004Z,42.13
2022-12-06T14:11:21.851Z,38.95
2022-12-06T14:16:27.386Z,38.22
2022-12-06T14:21:27.410Z,34.33
2022-12-06T14:26:26.868Z,41.78
2022-12-06T14:31:28.471Z,48.00
2022-12-06T14:36:28.354Z,61.60
2022-12-06T14:41:48.733Z,40.20
2022-12-06T14:46:48.891Z,37.67
2022-12-06T14:51:47.203Z,165.60
2022-12-06T14:56:45.774Z,87.97
2022-12-06T15:01:49.392Z,99.47
2022-12-06T15:06:52.619Z,64.47
2022-12-06T15:12:08.049Z,44.92
2022-12-06T15:17:17.098Z,44.05
2022-12-06T15:22:21.351Z,56.53
2022-12-06T15:27:23.432Z,53.67
2022-12-06T15:32:24.343Z,56.60
2022-12-06T15:37:39.759Z,40.47
2022-12-06T15:42:39.036Z,43.22
2022-12-06T15:47:38.580Z,28.77
2022-12-06T15:52:36.757Z,71.28
2022-12-06T15:57:35.028Z,50.75
2022-12-06T16:02:33.610Z,71.55
2022-12-06T16:07:33.254Z,48.25
2022-12-06T16:12:52.170Z,34.15
2022-12-06T16:17:50.351Z,37.13
2022-12-06T16:23:07.376Z,38.35
2022-12-06T16:28:05.679Z,24.25
2022-12-06T16:33:07.472Z,32.75
2022-12-06T16:38:07.381Z,31.80
2022-12-06T16:43:05.551Z,33.60
2022-12-06T16:48:03.746Z,30.15
2022-12-06T16:53:01.951Z,25.65
2022-12-06T16:58:01.467Z,23.67
2022-12-06T17:02:59.627Z,59.80
2022-12-06T17:07:57.847Z,37.80
2022-12-06T17:12:57.895Z,37.72
2022-12-06T17:17:57.410Z,36.95
2022-12-06T17:22:55.583Z,44.33
2022-12-06T17:27:53.745Z,40.28
2022-12-06T17:32:52.125Z,58.00
2022-12-06T17:37:52.461Z,81.43
2022-12-06T17:43:02.517Z,51.97
2022-12-06T17:48:00.677Z,64.70
2022-12-06T17:53:00.241Z,41.97
2022-12-06T17:57:58.460Z,39.78
2022-12-06T18:02:56.735Z,33.45
2022-12-06T18:07:55.089Z,33.63
2022-12-06T18:12:56.798Z,37.63
2022-12-06T18:17:58.178Z,70.80
2022-12-06T18:22:56.320Z,111.10
2022-12-06T18:27:55.856Z,99.15
2022-12-06T18:32:54.027Z,50.17
2022-12-06T18:37:52.276Z,84.80
2022-12-06T18:42:51.090Z,86.35
2022-12-06T18:47:50.665Z,165.65
2022-12-06T18:52:48.956Z,92.53
2022-12-06T18:57:47.093Z,48.60
2022-12-06T19:02:45.385Z,45.70
2022-12-06T19:07:45.663Z,34.13
2022-12-06T19:12:44.061Z,48.50
2022-12-06T19:17:43.279Z,44.83
2022-12-06T19:22:41.553Z,48.78
2022-12-06T19:27:42.292Z,40.47
2022-12-06T19:32:40.504Z,40.10
2022-12-06T19:37:38.658Z,155.77
2022-12-06T19:42:54.612Z,205.25
2022-12-06T19:47:54.221Z,73.50
2022-12-06T19:52:52.395Z,60.10
2022-12-06T19:57:50.680Z,37.80
2022-12-06T20:02:48.966Z,43.28
2022-12-06T20:07:48.596Z,47.13
2022-12-06T20:12:47.136Z,38.80
2022-12-06T20:17:45.556Z,38.70
2022-12-06T20:22:43.701Z,70.22
2022-12-06T20:27:52.113Z,49.20
2022-12-06T20:32:50.697Z,48.20
2022-12-06T20:37:50.934Z,56.10
2022-12-06T20:42:50.588Z,50.55
2022-12-06T20:47:51.983Z,47.47
2022-12-06T20:52:50.351Z,55.28
2022-12-06T20:57:48.515Z,57.10
2022-12-06T21:02:48.090Z,68.85
2022-12-06T21:07:46.400Z,67.32
2022-12-06T21:12:44.656Z,104.25
2022-12-06T21:17:42.856Z,57.80
2022-12-06T21:22:42.457Z,187.98
2022-12-06T21:27:40.667Z,88.28
2022-12-06T21:32:38.825Z,90.82
2022-12-06T21:37:37.007Z,79.90
2022-12-06T21:42:37.144Z,86.25
2022-12-06T21:47:35.337Z,93.60
2022-12-06T21:52:33.613Z,69.90
2022-12-06T21:57:34.234Z,171.25
2022-12-06T22:02:34.060Z,81.22
2022-12-06T22:07:33.499Z,56.80
2022-12-06T22:12:31.835Z,258.77
2022-12-06T22:17:30.069Z,240.57
2022-12-06T22:22:29.712Z,258.20
2022-12-06T22:27:27.884Z,154.20
2022-12-06T22:32:26.163Z,138.07
2022-12-06T22:37:28.444Z,136.73
2022-12-06T22:42:28.300Z,72.15
2022-12-06T22:47:26.646Z,88.05
2022-12-06T22:52:24.876Z,51.88
2022-12-06T22:57:23.039Z,62.70
2022-12-06T23:02:22.680Z,39.15
2022-12-06T23:07:20.909Z,71.13
2022-12-06T23:12:19.082Z,38.55
2022-12-06T23:17:17.255Z,56.45
2022-12-06T23:22:16.859Z,38.15
2022-12-06T23:27:15.039Z,204.90
2022-12-06T23:32:13.234Z,221.73
2022-12-06T23:37:11.479Z,84.22
2022-12-06T23:42:11.059Z,85.45
2022-12-06T23:47:09.250Z,102.05
2022-12-06T23:52:07.453Z,202.65
2022-12-06T23:57:05.633Z,254.02
